createdAt,value
2022-11-21T00:01:20.197Z,2.70
2022-11-21T00:03:48.380Z,3.13
2022-11-21T00:06:16.791Z,2.78
2022-11-21T00:08:45.138Z,2.88
2022-11-21T00:11:13.459Z,2.92
2022-11-21T00:13:41.730Z,2.85
2022-11-21T00:16:13.489Z,3.10
2022-11-21T00:18:42.365Z,2.67
2022-11-21T00:21:13.911Z,2.75
2022-11-21T00:23:42.149Z,2.70
2022-11-21T00:26:12.129Z,2.80
2022-11-21T00:28:40.211Z,2.88
2022-11-21T00:31:11.134Z,3.50
2022-11-21T00:33:39.756Z,3.15
2022-11-21T00:36:09.128Z,3.08
2022-11-21T00:38:37.649Z,3.20
2022-11-21T00:41:06.114Z,3.00
2022-11-21T00:43:34.454Z,3.45
2022-11-21T00:46:03.075Z,3.00
2022-11-21T00:48:33.363Z,3.20
2022-11-21T00:51:01.966Z,3.28
2022-11-21T00:53:30.794Z,3.20
2022-11-21T00:55:59.339Z,3.40
2022-11-21T00:58:27.643Z,2.95
2022-11-21T01:01:05.223Z,3.05
2022-11-21T01:03:35.498Z,3.05
2022-11-21T01:06:05.381Z,3.35
2022-11-21T01:08:35.266Z,3.20
2022-11-21T01:11:07.099Z,2.75
2022-11-21T01:13:35.775Z,3.08
2022-11-21T01:16:05.618Z,3.03
2022-11-21T01:18:35.193Z,2.80
2022-11-21T01:21:04.161Z,2.67
2022-11-21T01:23:32.464Z,2.90
2022-11-21T01:26:03.653Z,2.85
2022-11-21T01:28:32.099Z,3.05
2022-11-21T01:31:05.879Z,3.10
2022-11-21T01:33:35.734Z,3.00
2022-11-21T01:36:11.368Z,3.30
2022-11-21T01:38:39.862Z,7.50
2022-11-21T01:41:08.526Z,8.63
2022-11-21T01:43:36.773Z,7.47
2022-11-21T01:46:12.112Z,6.13
2022-11-21T01:48:47.105Z,6.72
2022-11-21T01:51:19.852Z,6.85
2022-11-21T01:53:51.618Z,6.13
2022-11-21T01:56:20.347Z,6.07
2022-11-21T01:58:50.759Z,6.00
2022-11-21T02:01:19.410Z,5.75
2022-11-21T02:03:49.609Z,5.28
2022-11-21T02:06:17.699Z,5.45
2022-11-21T02:08:46.770Z,5.55
2022-11-21T02:11:28.644Z,5.78
2022-11-21T02:13:57.357Z,5.18
2022-11-21T02:16:26.665Z,5.13
2022-11-21T02:18:56.338Z,5.13
2022-11-21T02:21:33.986Z,4.82
2022-11-21T02:24:06.361Z,5.03
2022-11-21T02:26:36.779Z,4.53
2022-11-21T02:29:04.854Z,5.15
2022-11-21T02:31:32.897Z,4.75
2022-11-21T02:34:00.969Z,5.00
2022-11-21T02:36:37.626Z,4.55
2022-11-21T02:39:07.064Z,4.50
2022-11-21T02:41:38.834Z,4.75
2022-11-21T02:44:14.316Z,4.30
2022-11-21T02:46:49.852Z,4.18
2022-11-21T02:49:23.060Z,4.60
2022-11-21T02:51:51.115Z,4.60
2022-11-21T02:54:19.192Z,4.50
2022-11-21T02:56:48.635Z,4.60
2022-11-21T02:59:16.710Z,4.95
2022-11-21T03:01:44.771Z,4.10
2022-11-21T03:04:12.850Z,4.40
2022-11-21T03:06:40.894Z,4.63
2022-11-21T03:09:08.968Z,4.00
2022-11-21T03:11:37.008Z,4.20
2022-11-21T03:14:06.418Z,5.05
2022-11-21T03:16:34.476Z,4.20
2022-11-21T03:19:02.684Z,4.30
2022-11-21T03:21:30.722Z,4.20
2022-11-21T03:23:58.783Z,4.55
2022-11-21T03:26:26.861Z,4.43
2022-11-21T03:28:54.927Z,4.55
2022-11-21T03:31:24.321Z,4.93
2022-11-21T03:33:52.358Z,4.32
2022-11-21T03:36:20.435Z,4.60
2022-11-21T03:38:48.491Z,4.53
2022-11-21T03:41:36.261Z,3.95
2022-11-21T03:44:07.325Z,4.15
2022-11-21T03:46:38.470Z,4.45
2022-11-21T03:49:06.899Z,3.88
2022-11-21T03:51:35.775Z,4.10
2022-11-21T03:54:04.322Z,4.53
2022-11-21T03:56:32.810Z,4.32
2022-11-21T03:59:01.006Z,4.30
2022-11-21T04:01:33.836Z,4.63
2022-11-21T04:04:05.978Z,4.68
2022-11-21T04:06:34.080Z,4.30
2022-11-21T04:09:02.163Z,4.35
2022-11-21T04:11:30.222Z,4.25
2022-11-21T04:13:58.265Z,4.20
2022-11-21T04:16:26.379Z,4.05
2022-11-21T04:18:54.467Z,4.32
2022-11-21T04:21:23.914Z,4.25
2022-11-21T04:23:51.958Z,4.40
2022-11-21T04:26:20.035Z,3.95
2022-11-21T04:28:48.323Z,4.20
2022-11-21T04:31:16.398Z,3.60
2022-11-21T04:33:44.432Z,4.13
2022-11-21T04:36:12.490Z,4.63
2022-11-21T04:38:41.901Z,4.35
2022-11-21T04:41:09.980Z,3.95
2022-11-21T04:43:38.239Z,3.63
2022-11-21T04:46:06.389Z,3.63
2022-11-21T04:48:34.448Z,4.18
2022-11-21T04:51:02.523Z,3.80
2022-11-21T04:53:30.578Z,4.07
2022-11-21T04:56:00.186Z,3.85
2022-11-21T04:58:28.230Z,4.32
2022-11-21T05:00:56.342Z,4.40
2022-11-21T05:03:24.445Z,3.90
2022-11-21T05:05:52.494Z,3.70
2022-11-21T05:08:20.519Z,3.80
2022-11-21T05:11:06.047Z,4.00
2022-11-21T05:13:35.455Z,3.90
2022-11-21T05:16:03.574Z,4.43
2022-11-21T05:18:31.929Z,3.88
2022-11-21T05:21:00.122Z,3.90
2022-11-21T05:23:28.159Z,3.40
2022-11-21T05:25:56.241Z,3.50
2022-11-21T05:28:24.279Z,4.65
2022-11-21T05:30:53.812Z,5.47
2022-11-21T05:33:21.958Z,4.60
2022-11-21T05:35:50.038Z,4.57
2022-11-21T05:38:18.101Z,4.35
2022-11-21T05:40:46.183Z,4.30
2022-11-21T05:43:31.691Z,4.43
2022-11-21T05:46:01.140Z,4.43
2022-11-21T05:48:29.211Z,4.20
2022-11-21T05:50:57.310Z,4.15
2022-11-21T05:53:25.329Z,3.83
2022-11-21T05:55:53.422Z,3.95
2022-11-21T05:58:21.594Z,3.85
2022-11-21T06:00:49.636Z,3.95
2022-11-21T06:03:30.985Z,3.83
2022-11-21T06:06:04.094Z,4.32
2022-11-21T06:08:33.721Z,3.63
2022-11-21T06:11:02.166Z,4.07
2022-11-21T06:13:30.278Z,4.43
2022-11-21T06:16:02.134Z,4.50
2022-11-21T06:18:34.237Z,4.20
2022-11-21T06:21:03.359Z,4.50
2022-11-21T06:23:31.595Z,4.82
2022-11-21T06:26:00.326Z,4.07
2022-11-21T06:28:29.078Z,4.35
2022-11-21T06:30:57.878Z,4.63
2022-11-21T06:33:25.959Z,4.00
2022-11-21T06:35:55.639Z,4.30
2022-11-21T06:38:23.723Z,4.18
2022-11-21T06:40:51.769Z,4.10
2022-11-21T06:43:19.865Z,4.85
2022-11-21T06:45:47.919Z,4.75
2022-11-21T06:48:16.017Z,4.53
2022-11-21T06:50:44.055Z,4.50
2022-11-21T06:53:13.478Z,4.40
2022-11-21T06:55:41.507Z,4.82
2022-11-21T06:58:09.603Z,4.80
2022-11-21T07:00:37.654Z,4.57
2022-11-21T07:03:05.803Z,4.45
2022-11-21T07:05:34.724Z,4.00
2022-11-21T07:08:03.659Z,4.45
2022-11-21T07:10:33.074Z,4.00
2022-11-21T07:13:19.141Z,3.95
2022-11-21T07:15:48.604Z,4.45
2022-11-21T07:18:16.932Z,4.10
2022-11-21T07:20:45.178Z,4.25
2022-11-21T07:23:13.251Z,4.85
2022-11-21T07:25:42.940Z,4.95
2022-11-21T07:28:11.381Z,4.22
2022-11-21T07:30:39.435Z,4.18
2022-11-21T07:33:09.325Z,4.38
2022-11-21T07:35:37.591Z,4.28
2022-11-21T07:38:05.952Z,3.92
2022-11-21T07:40:34.795Z,4.40
2022-11-21T07:43:10.516Z,4.68
2022-11-21T07:45:39.247Z,4.03
2022-11-21T07:48:08.758Z,4.35
2022-11-21T07:50:37.241Z,4.50
2022-11-21T07:53:07.087Z,4.72
2022-11-21T07:55:40.311Z,4.30
2022-11-21T07:58:12.276Z,4.35
2022-11-21T08:00:42.779Z,4.40
2022-11-21T08:03:12.687Z,4.57
2022-11-21T08:05:41.988Z,4.35
2022-11-21T08:08:10.788Z,4.60
2022-11-21T08:10:39.763Z,4.57
2022-11-21T08:13:09.295Z,5.00
2022-11-21T08:15:37.591Z,4.38
2022-11-21T08:18:09.946Z,4.22
2022-11-21T08:20:38.229Z,4.47
2022-11-21T08:23:07.142Z,4.93
2022-11-21T08:25:35.740Z,4.28
2022-11-21T08:28:04.038Z,4.30
2022-11-21T08:30:34.398Z,4.82
2022-11-21T08:33:03.062Z,4.03
2022-11-21T08:35:31.185Z,4.55
2022-11-21T08:37:59.891Z,4.78
2022-11-21T08:40:29.829Z,4.68
2022-11-21T08:42:58.665Z,4.63
2022-11-21T08:45:26.984Z,4.50
2022-11-21T08:47:56.667Z,4.20
2022-11-21T08:50:25.508Z,4.38
2022-11-21T08:52:53.658Z,4.10
2022-11-21T08:55:23.280Z,4.88
2022-11-21T08:57:51.392Z,4.57
2022-11-21T09:00:19.771Z,4.25
2022-11-21T09:02:47.817Z,4.43
2022-11-21T09:05:17.326Z,4.57
2022-11-21T09:07:45.487Z,3.90
2022-11-21T09:10:13.609Z,4.32
2022-11-21T09:12:41.686Z,4.32
2022-11-21T09:15:43.651Z,4.20
2022-11-21T09:18:12.981Z,4.38
2022-11-21T09:20:44.635Z,4.43
2022-11-21T09:23:15.142Z,4.38
2022-11-21T09:25:44.223Z,4.10
2022-11-21T09:28:14.456Z,4.38
2022-11-21T09:30:43.842Z,4.35
2022-11-21T09:33:13.917Z,4.03
2022-11-21T09:38:11.437Z,4.20
2022-11-21T09:40:45.143Z,3.88
2022-11-21T09:43:36.353Z,4.72
2022-11-21T09:46:11.172Z,4.65
2022-11-21T09:48:46.615Z,4.25
2022-11-21T09:51:19.422Z,4.28
2022-11-21T09:53:55.792Z,3.92
2022-11-21T09:56:24.679Z,4.55
2022-11-21T09:59:06.699Z,4.47
2022-11-21T10:01:35.250Z,4.90
2022-11-21T10:04:04.702Z,4.03
2022-11-21T10:06:39.874Z,4.20
2022-11-21T10:09:14.409Z,4.35
2022-11-21T10:12:07.045Z,4.80
2022-11-21T10:14:48.642Z,4.70
2022-11-21T10:17:24.083Z,5.07
2022-11-21T10:20:15.779Z,5.10
2022-11-21T10:23:01.456Z,4.55
2022-11-21T10:25:34.224Z,4.55
2022-11-21T10:28:07.772Z,5.07
2022-11-21T10:30:36.813Z,5.05
2022-11-21T10:33:06.848Z,5.00
2022-11-21T10:35:40.812Z,4.50
2022-11-21T10:38:21.979Z,4.70
2022-11-21T10:40:53.706Z,4.70
2022-11-21T10:43:51.609Z,4.57
2022-11-21T10:46:19.738Z,5.10
2022-11-21T10:48:54.956Z,4.05
2022-11-21T10:51:36.136Z,6.78
2022-11-21T10:54:28.071Z,6.38
2022-11-21T10:57:00.835Z,6.72
2022-11-21T10:59:31.464Z,5.30
2022-11-21T11:02:01.827Z,4.97
2022-11-21T11:04:36.901Z,4.95
2022-11-21T11:07:24.040Z,4.55
2022-11-21T11:09:54.353Z,4.97
2022-11-21T11:12:45.331Z,5.30
2022-11-21T11:15:19.531Z,5.10
2022-11-21T11:17:52.519Z,5.55
2022-11-21T11:20:36.261Z,4.80
2022-11-21T11:23:27.093Z,6.22
2022-11-21T11:25:58.075Z,6.15
2022-11-21T11:28:34.612Z,6.38
2022-11-21T11:31:02.700Z,6.57
2022-11-21T11:33:37.022Z,5.60
2022-11-21T11:36:15.156Z,6.78
2022-11-21T11:38:48.446Z,6.32
2022-11-21T11:41:57.594Z,5.72
2022-11-21T11:44:50.410Z,5.50
2022-11-21T11:47:33.147Z,6.07
2022-11-21T11:50:12.093Z,5.80
2022-11-21T11:52:53.395Z,5.50
2022-11-21T11:55:26.946Z,5.55
2022-11-21T11:58:00.526Z,5.35
2022-11-21T12:00:36.306Z,6.07
2022-11-21T12:03:13.138Z,5.72
2022-11-21T12:05:53.097Z,5.82
2022-11-21T12:11:41.193Z,5.95
2022-11-21T12:14:39.462Z,8.60
2022-11-21T12:17:10.718Z,6.68
2022-11-21T12:19:40.689Z,7.00
2022-11-21T12:24:43.008Z,6.35
2022-11-21T12:27:25.737Z,6.63
2022-11-21T12:30:36.375Z,5.13
2022-11-21T12:33:09.196Z,5.00
2022-11-21T12:36:17.459Z,5.40
2022-11-21T12:39:10.460Z,5.22
2022-11-21T12:42:00.835Z,4.30
2022-11-21T12:44:42.929Z,4.22
2022-11-21T12:47:28.770Z,4.10
2022-11-21T12:50:21.995Z,5.30
2022-11-21T12:53:10.835Z,4.60
2022-11-21T12:55:41.019Z,4.63
2022-11-21T12:58:22.486Z,4.35
2022-11-21T13:01:21.136Z,4.28
2022-11-21T13:04:00.195Z,4.32
2022-11-21T13:06:30.346Z,4.00
2022-11-21T13:09:02.369Z,4.03
2022-11-21T13:11:56.886Z,3.90
2022-11-21T13:14:31.123Z,3.70
2022-11-21T13:17:21.691Z,3.60
2022-11-21T13:19:55.729Z,3.53
2022-11-21T13:22:53.479Z,3.80
2022-11-21T13:25:55.499Z,3.47
2022-11-21T13:28:38.857Z,3.40
2022-11-21T13:31:40.738Z,3.50
2022-11-21T13:34:37.018Z,3.63
2022-11-21T13:37:07.060Z,3.42
2022-11-21T13:39:39.371Z,3.10
2022-11-21T13:42:31.891Z,3.90
2022-11-21T13:45:01.040Z,3.47
2022-11-21T13:48:05.689Z,2.90
2022-11-21T13:50:55.738Z,2.85
2022-11-21T13:53:58.436Z,2.97
2022-11-21T13:56:36.250Z,3.05
2022-11-21T13:59:27.073Z,2.97
2022-11-21T14:02:30.875Z,7.65
2022-11-21T14:05:15.104Z,5.50
2022-11-21T14:07:44.827Z,5.18
2022-11-21T14:10:32.030Z,4.75
2022-11-21T14:13:01.478Z,8.13
2022-11-21T14:15:39.183Z,6.63
2022-11-21T14:18:07.495Z,5.53
2022-11-21T14:20:50.081Z,4.85
2022-11-21T14:23:20.009Z,4.30
2022-11-21T14:28:23.683Z,4.45
2022-11-21T14:30:58.260Z,3.97
2022-11-21T14:33:28.826Z,4.70
2022-11-21T14:36:01.416Z,4.35
2022-11-21T14:38:31.616Z,3.90
2022-11-21T14:41:23.274Z,4.03
2022-11-21T14:43:51.560Z,4.03
2022-11-21T14:46:22.432Z,3.33
2022-11-21T14:48:52.056Z,3.70
2022-11-21T14:51:23.771Z,3.72
2022-11-21T14:53:53.970Z,3.40
2022-11-21T14:56:25.439Z,3.45
2022-11-21T14:58:55.356Z,3.00
2022-11-21T15:03:59.621Z,3.40
2022-11-21T15:06:29.726Z,4.05
2022-11-21T15:11:52.305Z,13.90
2022-11-21T15:14:25.887Z,12.00
2022-11-21T15:16:55.983Z,9.57
2022-11-21T15:19:26.810Z,10.32
2022-11-21T15:21:58.227Z,9.88
2022-11-21T15:24:37.660Z,9.10
2022-11-21T15:27:34.925Z,8.93
2022-11-21T15:30:06.346Z,8.75
2022-11-21T15:32:34.409Z,8.70
2022-11-21T15:35:31.933Z,7.47
2022-11-21T15:38:18.111Z,7.40
2022-11-21T15:41:04.753Z,8.27
2022-11-21T15:43:40.632Z,7.68
2022-11-21T15:46:17.028Z,7.28
2022-11-21T15:48:47.362Z,8.25
2022-11-21T15:51:15.800Z,7.45
2022-11-21T15:53:44.197Z,6.47
2022-11-21T15:56:21.234Z,6.22
2022-11-21T15:58:52.245Z,6.05
2022-11-21T16:01:21.887Z,5.35
2022-11-21T16:03:51.374Z,4.72
2022-11-21T16:06:20.309Z,5.10
2022-11-21T16:08:48.428Z,5.18
2022-11-21T16:11:21.912Z,4.40
2022-11-21T16:13:51.921Z,4.78
2022-11-21T16:18:48.714Z,4.30
2022-11-21T16:21:17.100Z,4.30
2022-11-21T16:23:45.682Z,4.35
2022-11-21T16:26:13.750Z,3.92
2022-11-21T16:28:42.147Z,3.97
2022-11-21T16:31:19.956Z,3.92
2022-11-21T16:33:48.062Z,3.20
2022-11-21T16:36:21.728Z,3.38
2022-11-21T16:38:50.264Z,3.90
2022-11-21T16:41:19.362Z,3.35
2022-11-21T16:43:49.799Z,3.17
2022-11-21T16:46:20.244Z,3.60
2022-11-21T16:48:48.823Z,3.22
2022-11-21T16:51:18.583Z,3.67
2022-11-21T16:53:48.397Z,2.90
2022-11-21T16:56:17.191Z,2.72
2022-11-21T16:58:45.549Z,2.85
2022-11-21T17:01:15.394Z,3.00
2022-11-21T17:03:47.362Z,3.08
2022-11-21T17:06:17.423Z,3.10
2022-11-21T17:11:14.669Z,3.03
2022-11-21T17:13:43.296Z,3.35
2022-11-21T17:16:12.511Z,3.53
2022-11-21T17:18:40.938Z,2.83
2022-11-21T17:21:12.888Z,2.90
2022-11-21T17:23:44.012Z,3.45
2022-11-21T17:26:14.159Z,3.00
2022-11-21T17:28:45.648Z,3.28
2022-11-21T17:31:15.389Z,4.40
2022-11-21T17:33:47.072Z,4.00
2022-11-21T17:36:16.731Z,3.90
2022-11-21T17:38:47.070Z,3.60
2022-11-21T17:41:16.835Z,3.83
2022-11-21T17:43:45.288Z,3.75
2022-11-21T17:46:14.509Z,3.50
2022-11-21T17:48:43.045Z,5.27
2022-11-21T17:51:13.542Z,5.93
2022-11-21T17:53:44.750Z,4.78
2022-11-21T17:56:15.169Z,5.22
2022-11-21T17:58:43.243Z,4.90
2022-11-21T18:01:14.003Z,4.97
2022-11-21T18:03:42.456Z,4.78
2022-11-21T18:06:11.945Z,4.70
2022-11-21T18:08:43.761Z,6.90
2022-11-21T18:11:13.603Z,5.80
2022-11-21T18:13:42.514Z,6.43
2022-11-21T18:16:12.467Z,6.05
2022-11-21T18:21:11.504Z,5.45
2022-11-21T18:23:40.123Z,4.82
2022-11-21T18:26:12.583Z,5.50
2022-11-21T18:28:40.983Z,5.45
2022-11-21T18:31:10.983Z,4.93
2022-11-21T18:36:08.887Z,4.57
2022-11-21T18:39:00.552Z,4.45
2022-11-21T18:43:58.673Z,4.22
2022-11-21T18:46:28.444Z,4.78
2022-11-21T18:49:12.710Z,4.03
2022-11-21T18:51:41.206Z,3.63
2022-11-21T18:54:10.600Z,4.07
2022-11-21T18:56:40.868Z,4.13
2022-11-21T18:59:09.041Z,3.90
2022-11-21T19:01:39.413Z,4.10
2022-11-21T19:04:07.911Z,4.07
2022-11-21T19:06:36.236Z,4.25
2022-11-21T19:09:05.447Z,4.05
2022-11-21T19:11:33.504Z,4.40
2022-11-21T19:14:02.922Z,4.10
2022-11-21T19:16:34.115Z,3.60
2022-11-21T19:21:50.755Z,4.20
2022-11-21T19:24:19.478Z,4.13
2022-11-21T19:26:50.500Z,4.60
2022-11-21T19:29:20.200Z,4.32
2022-11-21T19:31:48.288Z,4.53
2022-11-21T19:34:17.072Z,6.18
2022-11-21T19:36:45.264Z,6.22
2022-11-21T19:39:13.734Z,6.60
2022-11-21T19:41:41.780Z,5.82
2022-11-21T19:44:11.039Z,5.32
2022-11-21T19:46:40.781Z,4.60
2022-11-21T19:49:11.173Z,4.30
2022-11-21T19:51:41.432Z,4.50
2022-11-21T19:54:11.947Z,4.03
2022-11-21T19:56:40.669Z,4.18
2022-11-21T19:59:11.125Z,3.53
2022-11-21T20:01:41.249Z,3.40
2022-11-21T20:04:09.409Z,3.45
2022-11-21T20:06:39.984Z,3.03
2022-11-21T20:09:09.970Z,3.00
2022-11-21T20:14:06.314Z,2.70
2022-11-21T20:16:36.212Z,2.90
2022-11-21T20:19:07.909Z,2.88
2022-11-21T20:21:36.080Z,2.38
2022-11-21T20:24:04.791Z,2.35
2022-11-21T20:26:33.264Z,2.40
2022-11-21T20:29:01.592Z,2.25
2022-11-21T20:31:30.762Z,2.60
2022-11-21T20:34:00.845Z,2.60
2022-11-21T20:39:00.710Z,2.47
2022-11-21T20:41:30.020Z,2.30
2022-11-21T20:46:48.516Z,3.55
2022-11-21T20:49:16.768Z,3.22
2022-11-21T20:54:34.358Z,2.72
2022-11-21T20:57:02.432Z,3.03
2022-11-21T20:59:30.680Z,2.50
2022-11-21T21:01:58.987Z,2.30
2022-11-21T21:04:27.152Z,2.38
2022-11-21T21:06:56.571Z,2.40
2022-11-21T21:09:24.661Z,2.38
2022-11-21T21:11:53.578Z,2.90
2022-11-21T21:14:22.379Z,2.33
2022-11-21T21:16:51.171Z,2.00
2022-11-21T21:19:19.381Z,2.50
2022-11-21T21:21:47.398Z,2.25
2022-11-21T21:24:17.284Z,2.30
2022-11-21T21:29:16.182Z,2.22
2022-11-21T21:31:50.577Z,2.17
2022-11-21T21:34:20.341Z,1.85
2022-11-21T21:36:48.601Z,2.40
2022-11-21T21:39:18.028Z,1.80
2022-11-21T21:41:47.008Z,1.95
2022-11-21T21:44:15.859Z,2.13
2022-11-21T21:46:44.206Z,2.17
2022-11-21T21:49:12.609Z,1.90
2022-11-21T21:51:41.376Z,1.95
2022-11-21T21:54:18.638Z,2.17
2022-11-21T21:56:47.288Z,1.90
2022-11-21T21:59:15.910Z,1.73
2022-11-21T22:01:44.182Z,2.20
2022-11-21T22:04:13.443Z,3.80
2022-11-21T22:06:41.639Z,4.57
2022-11-21T22:09:09.857Z,4.85
2022-11-21T22:11:40.111Z,4.65
2022-11-21T22:14:11.391Z,4.30
2022-11-21T22:16:39.702Z,3.00
2022-11-21T22:19:07.829Z,3.00
2022-11-21T22:21:37.796Z,3.20
2022-11-21T22:24:27.478Z,2.83
2022-11-21T22:29:25.112Z,3.38
2022-11-21T22:31:53.243Z,2.65
2022-11-21T22:34:21.628Z,2.55
2022-11-21T22:36:49.716Z,2.58
2022-11-21T22:39:18.058Z,2.45
2022-11-21T22:41:46.287Z,2.30
2022-11-21T22:44:15.756Z,2.80
2022-11-21T22:46:43.831Z,2.35
2022-11-21T22:49:11.882Z,2.30
2022-11-21T22:51:39.975Z,2.15
2022-11-21T22:54:08.056Z,2.30
2022-11-21T22:56:36.532Z,2.13
2022-11-21T22:59:04.697Z,2.08
2022-11-21T23:01:35.147Z,1.90
2022-11-21T23:04:03.439Z,1.75
2022-11-21T23:06:31.580Z,2.08
2022-11-21T23:08:59.715Z,2.00
2022-11-21T23:11:29.135Z,1.65
2022-11-21T23:13:57.944Z,2.13
2022-11-21T23:16:26.858Z,1.55
2022-11-21T23:18:57.014Z,1.40
2022-11-21T23:21:25.294Z,1.80
2022-11-21T23:23:53.397Z,1.60
2022-11-21T23:26:21.598Z,1.50
2022-11-21T23:28:49.689Z,1.23
2022-11-21T23:31:17.815Z,1.55
2022-11-21T23:33:46.046Z,1.70
2022-11-21T23:36:15.479Z,1.60
2022-11-21T23:38:43.562Z,1.50
2022-11-21T23:41:11.695Z,1.58
2022-11-21T23:43:39.831Z,1.45
2022-11-21T23:46:07.885Z,1.40
2022-11-21T23:48:35.984Z,1.55
2022-11-21T23:51:04.023Z,1.17
2022-11-21T23:53:33.461Z,1.48
2022-11-21T23:56:01.532Z,1.42
2022-11-21T23:58:29.645Z,1.15
